Time;durP1;ratioP1;P1;durP2;ratioP2;P2;SDS_P1;SDS_P2;PMS_P1;PMS_P2;Temp;Humidity;BMP_temperature;BMP_pressure;BME280_temperature;BME280_humidity;BME280_pressure;Samples;Min_cycle;Max_cycle;Signal;HPM_P1;HPM_P2
2023/04/05 00:00:26;;;;;;;;;;;;;;;9.41;92.52;99445.22;4946638;28;20616;-41
2023/04/05 00:02:53;;;;;;;;;;;;;;;9.11;92.84;99456.13;4947054;28;19927;-41
2023/04/05 00:05:28;;;;;;;;;;;;;;;8.14;90.15;99434.59;4945515;28;19923;-40
2023/04/05 00:07:53;;;;;;;;;;;;;;;8.28;95.11;99483.13;4945210;28;19934;-41
2023/04/05 00:10:18;;;;;;;;;;;;;;;7.51;96.51;99495.28;4944733;28;20322;-40
2023/04/05 00:12:43;;;;;;;;;;;;;;;8.44;93.32;99447.84;4946463;28;20024;-40
2023/04/05 00:15:09;;;;;;;;;;;;;;;8.51;92.52;99439.19;4945423;28;20013;-41
2023/04/05 00:17:34;;;;;;;;;;;;;;;8.01;94.38;99463.88;4946974;28;20033;-41
2023/04/05 00:20:00;;;;;;;;;;;;;;;8.50;94.91;99463.16;4947083;28;19926;-41
2023/04/05 00:22:25;;;;;;;;;;;;;;;7.47;95.08;99469.69;4949326;28;19922;-40
2023/04/05 00:24:51;;;;;;;;;;;;;;;7.20;95.46;99479.38;4949524;28;19988;-41
2023/04/05 00:27:16;;;;;;;;;;;;;;;8.17;94.10;99449.97;4949619;28;21304;-41
2023/04/05 00:29:41;;;;;;;;;;;;;;;8.64;95.12;99456.06;4949823;28;19922;-41
2023/04/05 00:32:06;;;;;;;;;;;;;;;9.08;92.97;99428.75;4949141;28;19949;-41
2023/04/05 00:34:32;;;;;;;;;;;;;;;9.51;89.92;99399.63;4949816;28;19922;-41
2023/04/05 00:36:58;;;;;;;;;;;;;;;8.58;89.88;99420.25;4946623;28;19922;-40
2023/04/05 00:39:23;;;;;;;;;;;;;;;8.44;90.90;99433.31;4946510;28;20478;-41
2023/04/05 00:41:48;;;;;;;;;;;;;;;8.22;93.33;99458.44;4945480;28;20298;-41
2023/04/05 00:44:13;;;;;;;;;;;;;;;8.73;91.19;99419.13;4947914;28;20495;-41
2023/04/05 00:46:39;;;;;;;;;;;;;;;9.11;91.10;99417.56;4948685;28;20277;-41
2023/04/05 00:49:04;;;;;;;;;;;;;;;9.52;87.81;99391.03;4947009;28;19978;-40
2023/04/05 00:51:30;;;;;;;;;;;;;;;9.50;87.22;99385.06;4946876;28;19922;-41
2023/04/05 00:53:56;;;;;;;;;;;;;;;9.45;86.40;99381.75;4948785;28;20032;-41
2023/04/05 00:56:21;;;;;;;;;;;;;;;8.41;89.75;99417.09;4948350;28;19932;-40
2023/04/05 00:58:47;;;;;;;;;;;;;;;8.64;92.82;99443.22;4948385;28;19976;-40
2023/04/05 01:01:15;;;;;;;;;;;;;;;9.24;89.15;99395.03;4948268;28;19926;-41
2023/04/05 01:03:43;;;;;;;;;;;;;;;9.35;89.29;99395.66;4946327;28;20476;-41
2023/04/05 01:06:08;;;;;;;;;;;;;;;7.84;89.91;99415.38;4947851;28;21082;-40
2023/04/05 01:08:45;;;;;;;;;;;;;;;9.12;91.57;99416.69;4948629;28;19954;-40
2023/04/05 01:11:10;;;;;;;;;;;;;;;9.45;88.31;99386.91;4948545;28;20019;-40
2023/04/05 01:13:35;;;;;;;;;;;;;;;9.39;88.32;99384.44;4947792;28;19957;-41
2023/04/05 01:16:01;;;;;;;;;;;;;;;8.45;92.02;99435.00;4946322;28;20062;-40
2023/04/05 01:18:26;;;;;;;;;;;;;;;8.09;94.89;99452.63;4948838;28;19930;-40
2023/04/05 01:20:53;;;;;;;;;;;;;;;8.73;93.76;99431.97;4946738;28;20005;-40
2023/04/05 01:23:22;;;;;;;;;;;;;;;9.23;89.41;99383.91;4948219;28;19971;-40
2023/04/05 01:25:50;;;;;;;;;;;;;;;9.26;89.70;99390.72;4948294;28;19922;-40
2023/04/05 01:28:34;;;;;;;;;;;;;;;8.53;90.32;99402.34;4949661;28;19934;-41
2023/04/05 01:31:05;;;;;;;;;;;;;;;9.13;90.52;99396.09;4947517;28;19918;-41
2023/04/05 01:33:30;;;;;;;;;;;;;;;9.28;89.95;99389.78;4946654;28;19940;-40
2023/04/05 01:35:58;;;;;;;;;;;;;;;8.71;92.95;99431.13;4947561;28;19926;-40
2023/04/05 01:38:24;;;;;;;;;;;;;;;8.43;94.30;99452.13;4947056;28;19922;-41
2023/04/05 01:40:50;;;;;;;;;;;;;;;8.92;93.47;99427.34;4948389;28;20015;-41
2023/04/05 01:43:15;;;;;;;;;;;;;;;8.97;90.72;99397.28;4948585;28;20592;-40
2023/04/05 01:45:41;;;;;;;;;;;;;;;8.95;91.25;99404.19;4946586;28;19922;-41
2023/04/05 01:48:06;;;;;;;;;;;;;;;9.08;89.68;99387.66;4949456;28;20681;-41
2023/04/05 01:50:32;;;;;;;;;;;;;;;8.61;93.06;99425.31;4947221;28;19918;-40
2023/04/05 01:52:57;;;;;;;;;;;;;;;8.87;92.06;99395.75;4946783;28;20463;-40
2023/04/05 01:55:22;;;;;;;;;;;;;;;8.79;90.99;99388.19;4946648;28;19922;-41
2023/04/05 01:57:47;;;;;;;;;;;;;;;8.83;90.70;99379.56;4946363;28;19933;-41
2023/04/05 02:00:13;;;;;;;;;;;;;;;8.86;90.65;99389.78;4947109;28;19918;-41
2023/04/05 02:02:38;;;;;;;;;;;;;;;8.70;89.23;99368.66;4947556;28;20025;-41
2023/04/05 02:05:03;;;;;;;;;;;;;;;8.48;89.53;99372.50;4946603;28;19922;-41
2023/04/05 02:07:29;;;;;;;;;;;;;;;8.88;90.40;99375.19;4947454;28;19918;-40
2023/04/05 02:09:54;;;;;;;;;;;;;;;8.77;89.65;99372.81;4946970;28;19957;-41
2023/04/05 02:12:19;;;;;;;;;;;;;;;8.89;89.69;99370.88;4946605;28;19949;-41
2023/04/05 02:14:44;;;;;;;;;;;;;;;8.57;91.85;99398.00;4946331;28;20322;-41
2023/04/05 02:17:10;;;;;;;;;;;;;;;8.50;90.46;99381.00;4946370;28;19952;-40
2023/04/05 02:19:39;;;;;;;;;;;;;;;8.67;90.67;99376.44;4946728;28;19953;-41
2023/04/05 02:22:05;;;;;;;;;;;;;;;8.68;90.38;99367.84;4946403;28;19968;-40
2023/04/05 02:24:30;;;;;;;;;;;;;;;8.35;90.71;99380.38;4946647;28;19997;-41
2023/04/05 02:26:55;;;;;;;;;;;;;;;8.54;91.33;99378.38;4946614;28;19972;-40
2023/04/05 02:29:20;;;;;;;;;;;;;;;8.62;89.89;99365.41;4944905;28;19922;-41
2023/04/05 02:31:46;;;;;;;;;;;;;;;8.09;90.94;99385.09;4947216;28;19929;-41
2023/04/05 02:34:11;;;;;;;;;;;;;;;8.40;90.48;99374.34;4946361;28;19923;-40
2023/04/05 02:36:36;;;;;;;;;;;;;;;8.01;92.80;99398.03;4945416;28;19926;-40
2023/04/05 02:39:01;;;;;;;;;;;;;;;8.31;92.46;99391.56;4945810;28;19925;-41
2023/04/05 02:41:27;;;;;;;;;;;;;;;8.57;90.79;99367.19;4943724;28;20030;-41
2023/04/05 02:43:52;;;;;;;;;;;;;;;8.34;91.84;99380.41;4946195;28;20370;-41
2023/04/05 02:46:17;;;;;;;;;;;;;;;7.99;94.53;99415.16;4945391;28;20070;-41
2023/04/05 02:48:43;;;;;;;;;;;;;;;7.80;94.91;99417.16;4946543;28;19961;-40
2023/04/05 02:51:08;;;;;;;;;;;;;;;7.69;95.48;99422.44;4944885;28;20060;-41
2023/04/05 02:53:34;;;;;;;;;;;;;;;7.95;97.31;99429.72;4945888;28;20367;-41
2023/04/05 02:55:59;;;;;;;;;;;;;;;7.05;97.20;99433.47;4945100;28;20032;-40
2023/04/05 02:58:24;;;;;;;;;;;;;;;7.62;97.78;99431.06;4946413;28;19923;-41
2023/04/05 03:00:50;;;;;;;;;;;;;;;7.35;97.31;99431.41;4946368;28;19929;-41
2023/04/05 03:03:19;;;;;;;;;;;;;;;7.44;99.01;99441.56;4946680;28;19926;-41
2023/04/05 03:05:45;;;;;;;;;;;;;;;7.59;99.46;99445.63;4945537;28;20379;-40
2023/04/05 03:08:17;;;;;;;;;;;;;;;7.53;99.95;99449.13;4945849;28;19937;-40
2023/04/05 03:10:45;;;;;;;;;;;;;;;7.73;100.00;99453.97;4946385;28;19918;-41
2023/04/05 03:13:11;;;;;;;;;;;;;;;7.38;99.01;99439.91;4946641;28;19922;-41
2023/04/05 03:15:36;;;;;;;;;;;;;;;7.30;100.00;99450.25;4946029;28;20343;-41
2023/04/05 03:18:01;;;;;;;;;;;;;;;8.05;98.96;99420.22;4948061;28;19918;-41
2023/04/05 03:20:27;;;;;;;;;;;;;;;7.40;97.27;99415.09;4945610;28;19988;-41
2023/04/05 03:22:52;;;;;;;;;;;;;;;7.02;100.00;99457.38;4946568;28;19925;-41
2023/04/05 03:25:17;;;;;;;;;;;;;;;7.41;100.00;99445.00;4945925;28;19925;-40
2023/04/05 03:27:43;;;;;;;;;;;;;;;7.18;100.00;99460.63;4944760;28;19918;-41
2023/04/05 03:30:09;;;;;;;;;;;;;;;6.31;100.00;99480.16;4945503;28;20681;-41
2023/04/05 03:32:34;;;;;;;;;;;;;;;5.63;100.00;99510.31;4946339;28;20637;-41
2023/04/05 03:35:00;;;;;;;;;;;;;;;6.09;100.00;99510.16;4945134;28;20009;-41
2023/04/05 03:37:25;;;;;;;;;;;;;;;6.19;100.00;99501.56;4945698;28;19926;-41
2023/04/05 03:39:50;;;;;;;;;;;;;;;5.22;100.00;99509.63;4946572;28;19932;-41
2023/04/05 03:42:16;;;;;;;;;;;;;;;5.24;100.00;99517.25;4940813;28;19924;-41
2023/04/05 03:44:42;;;;;;;;;;;;;;;5.81;100.00;99514.50;4945488;28;20078;-41
2023/04/05 03:47:07;;;;;;;;;;;;;;;5.89;100.00;99510.22;4944084;28;19930;-41
2023/04/05 03:49:32;;;;;;;;;;;;;;;6.49;100.00;99494.53;4945532;28;20021;-41
2023/04/05 03:51:57;;;;;;;;;;;;;;;5.87;100.00;99514.50;4944415;28;19922;-41
2023/04/05 03:54:22;;;;;;;;;;;;;;;6.36;100.00;99498.88;4945047;28;20855;-40
2023/04/05 03:56:48;;;;;;;;;;;;;;;7.08;100.00;99479.50;4947876;28;19965;-41
2023/04/05 03:59:13;;;;;;;;;;;;;;;7.63;100.00;99426.78;4949117;28;19922;-41
2023/04/05 04:01:39;;;;;;;;;;;;;;;7.55;100.00;99416.63;4948608;28;19922;-41
2023/04/05 04:04:04;;;;;;;;;;;;;;;6.45;100.00;99464.72;4947936;28;19922;-41
2023/04/05 04:06:29;;;;;;;;;;;;;;;6.91;100.00;99456.63;4945843;28;19964;-41
2023/04/05 04:08:56;;;;;;;;;;;;;;;7.33;100.00;99428.88;4945622;28;19934;-41
2023/04/05 04:11:21;;;;;;;;;;;;;;;5.92;100.00;99494.84;4947989;28;19960;-41
2023/04/05 04:13:46;;;;;;;;;;;;;;;7.00;100.00;99451.44;4947743;28;19962;-41
2023/04/05 04:16:11;;;;;;;;;;;;;;;7.28;100.00;99430.63;4946688;28;20082;-41
2023/04/05 04:18:37;;;;;;;;;;;;;;;7.43;100.00;99415.06;4948490;28;19922;-41
2023/04/05 04:21:05;;;;;;;;;;;;;;;7.19;100.00;99417.94;4947167;28;20099;-41
2023/04/05 04:23:31;;;;;;;;;;;;;;;7.36;100.00;99417.72;4948324;28;19929;-41
2023/04/05 04:25:56;;;;;;;;;;;;;;;7.30;100.00;99408.41;4947770;28;19922;-41
2023/04/05 04:28:23;;;;;;;;;;;;;;;7.24;100.00;99414.44;4947775;28;20166;-41
2023/04/05 04:30:49;;;;;;;;;;;;;;;7.47;99.72;99403.91;4949272;28;20329;-41
2023/04/05 04:33:16;;;;;;;;;;;;;;;5.95;100.00;99461.63;4947909;28;19979;-41
2023/04/05 04:35:45;;;;;;;;;;;;;;;6.06;100.00;99472.66;4946483;28;20033;-41
2023/04/05 04:38:17;;;;;;;;;;;;;;;6.61;100.00;99452.63;4948732;28;19966;-41
2023/04/05 04:40:45;;;;;;;;;;;;;;;6.85;100.00;99441.34;4947242;28;19923;-41
2023/04/05 04:43:17;;;;;;;;;;;;;;;6.74;100.00;99432.91;4947230;28;19923;-41
2023/04/05 04:45:45;;;;;;;;;;;;;;;6.77;100.00;99448.22;4949022;28;21158;-41
2023/04/05 04:48:12;;;;;;;;;;;;;;;6.00;100.00;99465.03;4948548;28;20515;-41
2023/04/05 04:50:38;;;;;;;;;;;;;;;6.82;100.00;99449.03;4947103;28;19933;-41
2023/04/05 04:53:03;;;;;;;;;;;;;;;6.78;100.00;99443.09;4947330;28;19922;-41
2023/04/05 04:55:29;;;;;;;;;;;;;;;6.27;100.00;99447.78;4947834;28;20570;-41
2023/04/05 04:57:54;;;;;;;;;;;;;;;6.08;100.00;99476.03;4948310;28;19988;-41
2023/04/05 05:00:20;;;;;;;;;;;;;;;6.27;100.00;99461.44;4947515;28;19922;-41
2023/04/05 05:02:45;;;;;;;;;;;;;;;6.58;100.00;99450.97;4947218;28;19922;-41
2023/04/05 05:05:11;;;;;;;;;;;;;;;5.89;100.00;99468.47;4947074;28;19919;-41
2023/04/05 05:07:37;;;;;;;;;;;;;;;6.37;100.00;99476.72;4947460;28;20370;-41
2023/04/05 05:10:02;;;;;;;;;;;;;;;6.38;100.00;99465.63;4947048;28;20727;-41
2023/04/05 05:12:30;;;;;;;;;;;;;;;6.37;100.00;99457.09;4948016;28;19937;-41
2023/04/05 05:14:55;;;;;;;;;;;;;;;6.84;100.00;99444.75;4948916;28;19918;-41
2023/04/05 05:17:20;;;;;;;;;;;;;;;6.33;100.00;99455.44;4947898;28;20226;-41
2023/04/05 05:19:45;;;;;;;;;;;;;;;6.63;100.00;99441.53;4946591;28;19918;-41
2023/04/05 05:22:11;;;;;;;;;;;;;;;6.48;100.00;99451.91;4948026;28;20016;-41
2023/04/05 05:24:36;;;;;;;;;;;;;;;6.78;100.00;99437.16;4949602;28;19922;-41
2023/04/05 05:27:01;;;;;;;;;;;;;;;6.99;100.00;99419.00;4947457;28;19932;-42
2023/04/05 05:29:26;;;;;;;;;;;;;;;7.13;100.00;99403.47;4948299;28;19922;-41
2023/04/05 05:31:52;;;;;;;;;;;;;;;6.36;100.00;99423.84;4948109;28;20364;-41
2023/04/05 05:34:18;;;;;;;;;;;;;;;6.60;100.00;99462.03;4947214;28;19966;-41
2023/04/05 05:36:43;;;;;;;;;;;;;;;7.05;100.00;99421.50;4947020;28;19975;-41
2023/04/05 05:39:08;;;;;;;;;;;;;;;7.22;100.00;99417.91;4947422;28;19922;-41
2023/04/05 05:41:33;;;;;;;;;;;;;;;7.22;100.00;99407.66;4948581;28;19922;-41
2023/04/05 05:43:59;;;;;;;;;;;;;;;7.12;100.00;99417.16;4946773;28;19929;-41
2023/04/05 05:46:27;;;;;;;;;;;;;;;7.22;100.00;99421.28;4945698;28;19957;-41
2023/04/05 05:48:52;;;;;;;;;;;;;;;7.37;100.00;99401.47;4948758;28;19918;-41
2023/04/05 05:51:17;;;;;;;;;;;;;;;7.39;100.00;99403.19;4946307;28;20399;-41
2023/04/05 05:53:43;;;;;;;;;;;;;;;7.28;100.00;99420.41;4946479;28;20372;-41
2023/04/05 05:56:08;;;;;;;;;;;;;;;6.82;100.00;99423.44;4945248;28;20527;-41
2023/04/05 05:58:33;;;;;;;;;;;;;;;7.37;100.00;99415.16;4946750;28;19922;-41
2023/04/05 06:00:59;;;;;;;;;;;;;;;7.67;100.00;99393.41;4947324;28;19926;-41
2023/04/05 06:03:30;;;;;;;;;;;;;;;7.42;99.78;99385.19;4947418;28;19922;-41
2023/04/05 06:05:56;;;;;;;;;;;;;;;6.47;100.00;99419.50;4946954;28;19937;-41
2023/04/05 06:08:22;;;;;;;;;;;;;;;7.16;100.00;99438.44;4948004;28;20756;-41
2023/04/05 06:10:48;;;;;;;;;;;;;;;7.44;100.00;99406.53;4946363;28;19918;-41
2023/04/05 06:13:13;;;;;;;;;;;;;;;7.53;100.00;99406.41;4946995;28;20091;-41
2023/04/05 06:15:38;;;;;;;;;;;;;;;7.70;98.35;99387.38;4946349;28;20441;-41
2023/04/05 06:18:03;;;;;;;;;;;;;;;8.32;98.51;99371.88;4947746;28;20440;-41
2023/04/05 06:20:28;;;;;;;;;;;;;;;6.66;96.75;99372.41;4946605;28;20393;-41
2023/04/05 06:22:54;;;;;;;;;;;;;;;7.87;99.65;99393.13;4946290;28;19930;-41
2023/04/05 06:25:19;;;;;;;;;;;;;;;7.25;97.50;99381.97;4946126;28;19926;-41
2023/04/05 06:27:44;;;;;;;;;;;;;;;7.56;99.17;99389.28;4945272;28;19929;-41
2023/04/05 06:30:10;;;;;;;;;;;;;;;8.13;99.76;99387.56;4946793;28;19926;-41
2023/04/05 06:32:35;;;;;;;;;;;;;;;8.57;97.95;99367.19;4946988;28;19962;-41
2023/04/05 06:35:02;;;;;;;;;;;;;;;7.61;95.23;99351.63;4947311;28;20044;-41
2023/04/05 06:37:28;;;;;;;;;;;;;;;7.90;98.58;99384.53;4944272;28;19942;-41
2023/04/05 06:39:53;;;;;;;;;;;;;;;7.92;96.46;99363.13;4947213;28;19933;-41
2023/04/05 06:42:18;;;;;;;;;;;;;;;6.81;99.60;99406.38;4946682;28;20355;-41
2023/04/05 06:44:43;;;;;;;;;;;;;;;8.41;99.49;99382.00;4946353;28;20422;-41
2023/04/05 06:47:09;;;;;;;;;;;;;;;8.03;97.25;99367.22;4945981;28;19918;-41
2023/04/05 06:49:34;;;;;;;;;;;;;;;7.73;99.04;99387.31;4945051;28;19922;-41
2023/04/05 06:52:01;;;;;;;;;;;;;;;7.67;99.53;99397.69;4948051;28;20275;-41
2023/04/05 06:54:26;;;;;;;;;;;;;;;7.74;99.33;99389.88;4945950;28;20345;-41
2023/04/05 06:56:52;;;;;;;;;;;;;;;7.61;99.13;99388.34;4944937;28;19927;-41
2023/04/05 06:59:17;;;;;;;;;;;;;;;8.22;100.00;99401.16;4945436;28;19929;-41
2023/04/05 07:01:42;;;;;;;;;;;;;;;8.86;97.96;99360.69;4945807;28;20305;-41
2023/04/05 07:04:07;;;;;;;;;;;;;;;8.11;98.69;99388.47;4947329;28;19941;-41
2023/04/05 07:06:34;;;;;;;;;;;;;;;8.55;97.84;99363.81;4943776;28;19922;-41
2023/04/05 07:08:59;;;;;;;;;;;;;;;8.89;97.07;99360.63;4948740;28;20542;-41
2023/04/05 07:11:24;;;;;;;;;;;;;;;8.85;95.24;99339.31;4943166;28;19994;-41
2023/04/05 07:13:49;;;;;;;;;;;;;;;8.58;97.37;99368.91;4947486;28;20320;-41
2023/04/05 07:16:16;;;;;;;;;;;;;;;9.27;95.45;99338.44;4945050;28;20516;-41
2023/04/05 07:18:42;;;;;;;;;;;;;;;9.08;95.36;99338.84;4945692;28;19922;-41
2023/04/05 07:21:07;;;;;;;;;;;;;;;8.17;94.75;99342.22;4947388;28;19940;-41
2023/04/05 07:23:32;;;;;;;;;;;;;;;8.79;94.66;99340.25;4947156;28;19918;-41
2023/04/05 07:26:03;;;;;;;;;;;;;;;8.63;97.16;99359.41;4946271;28;19930;-41
2023/04/05 07:28:29;;;;;;;;;;;;;;;9.84;94.85;99327.72;4947545;28;19918;-41
2023/04/05 07:30:54;;;;;;;;;;;;;;;10.63;90.74;99281.13;4945410;28;20325;-41
2023/04/05 07:33:19;;;;;;;;;;;;;;;9.21;91.94;99314.59;4946504;28;20425;-41
2023/04/05 07:35:45;;;;;;;;;;;;;;;9.43;90.29;99298.69;4946660;28;20326;-41
2023/04/05 07:38:10;;;;;;;;;;;;;;;9.04;93.90;99336.38;4944996;28;19922;-41
2023/04/05 07:40:35;;;;;;;;;;;;;;;9.63;93.49;99326.50;4947685;28;19922;-41
2023/04/05 07:43:00;;;;;;;;;;;;;;;10.71;90.43;99280.91;4946135;28;20055;-41
2023/04/05 07:45:26;;;;;;;;;;;;;;;10.57;89.33;99270.13;4946004;28;19918;-41
2023/04/05 07:47:51;;;;;;;;;;;;;;;10.05;90.92;99298.91;4946078;28;19929;-41
2023/04/05 07:50:16;;;;;;;;;;;;;;;10.60;89.59;99277.78;4945886;28;19918;-41
2023/04/05 07:52:41;;;;;;;;;;;;;;;11.72;88.18;99262.38;4944685;28;19919;-42
2023/04/05 07:55:07;;;;;;;;;;;;;;;11.90;87.17;99257.53;4946849;28;19932;-41
2023/04/05 07:57:33;;;;;;;;;;;;;;;11.81;83.08;99229.41;4947173;28;19948;-41
2023/04/05 07:59:58;;;;;;;;;;;;;;;12.31;82.62;99229.44;4947128;28;20981;-41
2023/04/05 08:02:23;;;;;;;;;;;;;;;11.43;83.84;99249.56;4946580;28;19918;-41
2023/04/05 08:04:48;;;;;;;;;;;;;;;12.89;80.02;99193.72;4945771;28;20000;-41
2023/04/05 08:07:14;;;;;;;;;;;;;;;11.35;77.86;99208.53;4943849;28;19919;-42
2023/04/05 08:09:39;;;;;;;;;;;;;;;11.89;81.50;99236.03;4944326;28;19929;-41
2023/04/05 08:12:05;;;;;;;;;;;;;;;12.75;79.85;99212.34;4946849;28;20047;-42
2023/04/05 08:14:30;;;;;;;;;;;;;;;11.99;80.65;99231.41;4946736;28;20630;-42
2023/04/05 08:16:55;;;;;;;;;;;;;;;12.74;78.07;99199.47;4945406;28;19932;-42
2023/04/05 08:19:21;;;;;;;;;;;;;;;12.71;77.92;99212.50;4945849;28;20041;-42
2023/04/05 08:21:46;;;;;;;;;;;;;;;13.59;73.96;99171.13;4945419;28;20029;-42
2023/04/05 08:24:11;;;;;;;;;;;;;;;13.69;73.27;99169.03;4946616;28;20012;-42
2023/04/05 08:26:36;;;;;;;;;;;;;;;14.00;73.16;99168.53;4946637;28;20005;-42
2023/04/05 08:29:01;;;;;;;;;;;;;;;13.41;70.18;99161.53;4944980;28;20017;-42
2023/04/05 08:31:27;;;;;;;;;;;;;;;13.26;72.31;99181.94;4946477;28;21038;-42
2023/04/05 08:33:52;;;;;;;;;;;;;;;12.18;73.41;99200.66;4946461;28;20429;-42
2023/04/05 08:36:17;;;;;;;;;;;;;;;14.21;70.36;99151.25;4944703;28;19956;-41
2023/04/05 08:38:42;;;;;;;;;;;;;;;13.63;67.99;99144.22;4945487;28;20005;-42
2023/04/05 08:41:21;;;;;;;;;;;;;;;14.63;68.12;99130.31;4947405;28;19969;-41
2023/04/05 08:43:46;;;;;;;;;;;;;;;13.10;68.69;99160.19;4949845;28;19952;-42
2023/04/05 08:46:13;;;;;;;;;;;;;;;14.76;66.08;99129.75;4948127;28;19922;-42
2023/04/05 08:48:40;;;;;;;;;;;;;;;14.18;61.10;99102.97;4947822;28;20279;-41
2023/04/05 08:51:05;;;;;;;;;;;;;;;15.17;62.13;99106.19;4949920;28;19933;-42
2023/04/05 08:53:30;;;;;;;;;;;;;;;14.55;64.53;99144.53;4949387;28;20049;-41
2023/04/05 08:55:56;;;;;;;;;;;;;;;15.81;58.68;99089.16;4949390;28;19975;-41
2023/04/05 08:58:21;;;;;;;;;;;;;;;15.77;60.47;99104.03;4948347;28;19929;-41
2023/04/05 09:00:47;;;;;;;;;;;;;;;13.39;54.05;99073.69;4948353;28;19919;-41
2023/04/05 09:03:15;;;;;;;;;;;;;;;14.47;60.24;99116.38;4947176;28;20013;-42
2023/04/05 09:05:40;;;;;;;;;;;;;;;16.06;53.90;99070.50;4944898;28;19925;-42
2023/04/05 09:08:06;;;;;;;;;;;;;;;16.29;55.55;99093.50;4946221;28;20551;-41
2023/04/05 09:10:31;;;;;;;;;;;;;;;15.47;59.22;99119.38;4948003;28;19923;-42
2023/04/05 09:12:57;;;;;;;;;;;;;;;15.72;59.37;99124.22;4949356;28;19983;-42
2023/04/05 09:15:25;;;;;;;;;;;;;;;14.54;55.84;99107.41;4948019;28;19972;-41
2023/04/05 09:17:50;;;;;;;;;;;;;;;15.73;58.33;99105.09;4948490;28;19969;-42
2023/04/05 09:20:16;;;;;;;;;;;;;;;16.00;57.04;99104.59;4948942;28;20028;-42
2023/04/05 09:22:42;;;;;;;;;;;;;;;15.45;56.81;99098.69;4948432;28;19925;-41
2023/04/05 09:25:07;;;;;;;;;;;;;;;15.92;53.96;99081.63;4948848;28;20028;-41
2023/04/05 09:27:33;;;;;;;;;;;;;;;13.89;52.55;99082.72;4947250;28;20032;-41
2023/04/05 09:29:58;;;;;;;;;;;;;;;15.84;59.75;99128.75;4947471;28;19928;-41
2023/04/05 09:32:24;;;;;;;;;;;;;;;15.39;51.02;99048.84;4948899;28;20498;-41
2023/04/05 09:34:51;;;;;;;;;;;;;;;15.23;52.49;99077.31;4946632;28;19922;-42
2023/04/05 09:37:18;;;;;;;;;;;;;;;16.98;52.14;99057.63;4947911;28;20583;-42
2023/04/05 09:39:44;;;;;;;;;;;;;;;16.33;52.56;99067.31;4948675;28;20324;-42
2023/04/05 09:42:14;;;;;;;;;;;;;;;16.68;54.53;99083.59;4948855;28;19924;-41
2023/04/05 09:44:51;;;;;;;;;;;;;;;14.95;48.53;99038.97;4949008;28;20536;-42
2023/04/05 09:47:17;;;;;;;;;;;;;;;14.14;53.96;99101.47;4947607;28;20045;-41
2023/04/05 09:49:42;;;;;;;;;;;;;;;15.27;53.15;99076.25;4945741;28;20007;-41
2023/04/05 09:52:21;;;;;;;;;;;;;;;12.41;54.07;99109.44;4979525;28;19925;-41
2023/04/05 09:54:46;;;;;;;;;;;;;;;13.52;60.38;99136.91;4946957;28;19926;-41
2023/04/05 09:57:11;;;;;;;;;;;;;;;13.58;51.64;99064.19;4949273;28;19991;-41
2023/04/05 09:59:38;;;;;;;;;;;;;;;11.87;54.22;99107.94;4948435;28;19918;-41
2023/04/05 10:02:03;;;;;;;;;;;;;;;14.77;57.41;99102.91;4947257;28;19925;-42
2023/04/05 10:04:41;;;;;;;;;;;;;;;16.62;50.81;99031.91;4948327;28;19914;-42
2023/04/05 10:07:07;;;;;;;;;;;;;;;15.42;49.08;99033.16;4944983;28;19929;-42
2023/04/05 10:09:32;;;;;;;;;;;;;;;16.83;48.28;99014.28;4945069;28;20288;-41
2023/04/05 10:11:58;;;;;;;;;;;;;;;15.66;47.67;99028.41;4946349;28;19948;-42
2023/04/05 10:14:23;;;;;;;;;;;;;;;14.92;48.30;99027.00;4947006;28;19926;-41
2023/04/05 10:16:59;;;;;;;;;;;;;;;13.67;47.72;99031.09;4947498;28;20022;-41
2023/04/05 10:19:28;;;;;;;;;;;;;;;17.44;51.00;99036.72;4946964;28;19914;-41
2023/04/05 10:21:54;;;;;;;;;;;;;;;18.16;46.80;98995.88;4946551;28;20375;-42
2023/04/05 10:24:28;;;;;;;;;;;;;;;17.31;45.17;98984.56;4948880;28;19918;-42
2023/04/05 10:26:55;;;;;;;;;;;;;;;15.84;49.35;99047.44;4946036;28;19922;-41
2023/04/05 10:29:24;;;;;;;;;;;;;;;13.97;53.95;99080.66;4946205;28;19922;-42
2023/04/05 10:31:51;;;;;;;;;;;;;;;15.24;50.46;99040.94;4947791;28;20513;-42
2023/04/05 10:34:23;;;;;;;;;;;;;;;17.03;46.65;98995.75;4946372;28;19927;-41
2023/04/05 10:36:59;;;;;;;;;;;;;;;15.44;49.01;99037.34;4946603;28;19922;-41
2023/04/05 10:39:25;;;;;;;;;;;;;;;16.64;44.75;98980.66;4947527;28;19933;-41
2023/04/05 10:41:56;;;;;;;;;;;;;;;15.89;50.90;99055.81;4947632;28;20279;-41
2023/04/05 10:44:21;;;;;;;;;;;;;;;16.54;50.09;99023.72;4947631;28;20568;-41
2023/04/05 10:46:47;;;;;;;;;;;;;;;17.72;47.63;99003.78;4945974;28;19999;-41
2023/04/05 10:49:20;;;;;;;;;;;;;;;17.60;47.08;99000.19;4947722;28;20003;-41
2023/04/05 10:51:45;;;;;;;;;;;;;;;17.97;44.56;98967.53;4946566;28;19930;-41
2023/04/05 10:54:10;;;;;;;;;;;;;;;17.80;43.10;98946.03;4946025;28;19918;-41
2023/04/05 10:56:36;;;;;;;;;;;;;;;14.47;45.94;99020.50;4948293;28;19926;-41
2023/04/05 10:59:01;;;;;;;;;;;;;;;12.87;61.83;99143.00;4947271;28;19975;-41
2023/04/05 11:01:26;;;;;;;;;;;;;;;11.93;67.90;99160.19;4947357;28;19926;-41
2023/04/05 11:03:53;;;;;;;;;;;;;;;12.15;74.08;99190.41;4943838;28;19929;-41
2023/04/05 11:06:21;;;;;;;;;;;;;;;12.54;65.36;99110.66;4946816;28;19929;-41
2023/04/05 11:08:48;;;;;;;;;;;;;;;14.29;70.40;99132.75;4947803;28;19933;-41
2023/04/05 11:11:15;;;;;;;;;;;;;;;13.00;70.78;99133.00;4948478;28;20371;-41
2023/04/05 11:13:50;;;;;;;;;;;;;;;14.26;73.14;99143.25;4936830;28;20503;-41
2023/04/05 11:16:16;;;;;;;;;;;;;;;18.26;59.59;99019.56;4947175;28;19926;-41
2023/04/05 11:18:45;;;;;;;;;;;;;;;18.21;46.17;98943.44;4947680;28;19929;-41
2023/04/05 11:21:10;;;;;;;;;;;;;;;17.46;50.47;98992.38;4948357;28;19937;-41
2023/04/05 11:24:02;;;;;;;;;;;;;;;16.68;50.78;98985.63;4947699;28;19918;-41
2023/04/05 11:26:31;;;;;;;;;;;;;;;16.08;45.26;98955.19;4943673;28;19958;-41
2023/04/05 11:28:57;;;;;;;;;;;;;;;16.17;42.73;98932.22;4943952;28;19945;-41
2023/04/05 11:31:25;;;;;;;;;;;;;;;15.34;47.25;98981.63;4947893;28;20426;-41
2023/04/05 11:33:54;;;;;;;;;;;;;;;16.92;48.71;98985.13;4947967;28;19925;-41
2023/04/05 11:36:32;;;;;;;;;;;;;;;16.80;48.14;98971.09;4946536;28;19922;-41
2023/04/05 11:39:16;;;;;;;;;;;;;;;16.46;49.33;98972.97;4946827;28;20433;-41
2023/04/05 11:41:41;;;;;;;;;;;;;;;17.04;48.63;98955.81;4947012;28;19922;-41
2023/04/05 11:44:09;;;;;;;;;;;;;;;17.52;49.26;98977.22;4947607;28;20315;-41
2023/04/05 11:46:34;;;;;;;;;;;;;;;15.20;50.66;98989.28;4943701;28;19922;-41
2023/04/05 11:49:00;;;;;;;;;;;;;;;14.36;54.15;99015.81;4946477;28;19964;-41
2023/04/05 11:51:27;;;;;;;;;;;;;;;13.10;60.75;99072.25;4945630;28;19959;-41
2023/04/05 11:53:53;;;;;;;;;;;;;;;13.18;61.01;99054.66;4945263;28;19922;-41
2023/04/05 11:56:18;;;;;;;;;;;;;;;13.22;63.14;99061.41;4946986;28;19987;-41
2023/04/05 11:58:44;;;;;;;;;;;;;;;16.04;57.25;98989.22;4946046;28;19919;-41
2023/04/05 12:01:09;;;;;;;;;;;;;;;17.29;55.17;98976.00;4950880;28;20421;-41
2023/04/05 12:03:35;;;;;;;;;;;;;;;16.21;50.14;98942.34;4948712;28;19927;-41
2023/04/05 12:06:01;;;;;;;;;;;;;;;14.67;51.00;98977.25;4948578;28;20411;-41
2023/04/05 12:08:39;;;;;;;;;;;;;;;15.42;54.06;98987.25;4950154;28;19929;-41
2023/04/05 12:11:06;;;;;;;;;;;;;;;15.52;53.02;98977.22;4951601;28;19934;-41
2023/04/05 12:13:31;;;;;;;;;;;;;;;17.67;53.20;98974.59;4951126;28;19922;-41
2023/04/05 12:16:00;;;;;;;;;;;;;;;16.63;48.76;98935.63;4946300;28;19976;-41
2023/04/05 12:18:28;;;;;;;;;;;;;;;16.38;48.27;98930.19;4953982;28;19925;-41
2023/04/05 12:20:54;;;;;;;;;;;;;;;13.97;55.03;98992.63;4947618;28;20457;-41
2023/04/05 12:23:20;;;;;;;;;;;;;;;16.11;61.08;99039.91;4945961;28;20017;-41
2023/04/05 12:25:48;;;;;;;;;;;;;;;17.76;51.11;98948.81;4947023;28;20036;-41
2023/04/05 12:28:14;;;;;;;;;;;;;;;19.16;49.39;98933.72;4949345;28;19928;-41
2023/04/05 12:30:52;;;;;;;;;;;;;;;18.32;45.97;98904.47;4947632;28;20809;-41
2023/04/05 12:33:27;;;;;;;;;;;;;;;14.38;49.48;98953.56;4948781;28;19933;-41
2023/04/05 12:35:53;;;;;;;;;;;;;;;16.77;51.95;98949.59;4948480;28;20013;-41
2023/04/05 12:38:18;;;;;;;;;;;;;;;16.60;49.19;98941.00;4949128;28;20012;-41
2023/04/05 12:40:43;;;;;;;;;;;;;;;16.64;48.77;98936.47;4949514;28;19922;-41
2023/04/05 12:43:09;;;;;;;;;;;;;;;18.11;43.87;98874.56;4948037;28;19957;-41
2023/04/05 12:45:40;;;;;;;;;;;;;;;17.14;44.02;98891.03;4947025;28;19946;-41